Calabash, North Carolina
Current Conditions -  °F | °C
As of 7:53 AM on Wednesday 26 Nov 2014 (Local Time) from KCRE Reporting Station
Overcast Overcast  
Wind Chill: 55°   Ceiling: 600
Heat Index: 55°   Visibility: 10mi
Dew Point: 52°   Wind: 16mph
Humidity: 89%   Direction: 340°NNW
Pressure: 29.78"   Gusts: 24mph
Location:  33.89°N, 78.57°W
Report Text: KCRE 261253Z 34014G21KT 10SM OVC006 13/11 A2978 RMK AO1 LTG DSNT SE RAE51 CIG 005V009 SLP086 P0001 T01280111
Loading
Personal Weather Stations






























Interactive Weather Map New forecast layout! Learn more

10-Day Weather Forecast

Advertisements
Track Severe Weather on mobile